Time;durP1;ratioP1;P1;durP2;ratioP2;P2;SDS_P1;SDS_P2;PMS_P1;PMS_P2;Temp;Humidity;BMP_temperature;BMP_pressure;BME280_temperature;BME280_humidity;BME280_pressure;Samples;Min_cycle;Max_cycle;Signal;HPM_P1;HPM_P2
2022/06/25 00:01:38;;;;;;;1.30;1.20;;;;;;;22.74;56.50;93092.25;4753301;30;20040;-94
2022/06/25 00:04:03;;;;;;;1.50;1.40;;;;;;;22.72;56.56;93100.34;4793398;29;20046;-93
2022/06/25 00:06:29;;;;;;;1.90;1.20;;;;;;;22.72;56.42;93081.81;4755104;30;20035;-93
2022/06/25 00:08:54;;;;;;;1.50;1.40;;;;;;;22.71;56.28;93096.88;4759040;30;20039;-91
2022/06/25 00:14:06;;;;;;;1.40;1.30;;;;;;;22.72;56.15;93101.09;4759584;30;20073;-92
2022/06/25 00:16:31;;;;;;;1.45;1.30;;;;;;;22.72;56.33;93098.34;4754970;30;20031;-93
2022/06/25 00:18:58;;;;;;;1.40;1.10;;;;;;;22.71;56.37;93094.09;4754896;30;20597;-90
2022/06/25 00:21:23;;;;;;;1.73;1.10;;;;;;;22.70;56.21;93103.66;4754395;30;20035;-91
2022/06/25 00:23:52;;;;;;;1.35;1.17;;;;;;;22.72;56.43;93094.84;4754236;29;20042;-93
2022/06/25 00:26:17;;;;;;;2.42;1.40;;;;;;;22.69;56.21;93102.19;4769898;30;20067;-91
2022/06/25 00:28:43;;;;;;;1.20;1.00;;;;;;;22.70;56.21;93098.16;4754139;30;20024;-94
2022/06/25 00:31:08;;;;;;;1.27;1.02;;;;;;;22.69;56.18;93104.19;4753568;30;20039;-93
2022/06/25 00:33:33;;;;;;;2.10;1.27;;;;;;;22.70;56.20;93108.44;4754439;30;20038;-93
2022/06/25 00:35:59;;;;;;;1.05;0.95;;;;;;;22.69;56.21;93104.94;4753932;29;20058;-93
2022/06/25 00:38:25;;;;;;;1.20;1.00;;;;;;;22.70;56.19;93105.69;4753964;30;20423;-91
2022/06/25 00:40:51;;;;;;;1.38;1.27;;;;;;;22.68;56.40;93099.97;4754199;30;20027;-95
2022/06/25 00:43:16;;;;;;;1.30;1.20;;;;;;;22.68;56.12;93116.50;4754867;30;20043;-90
2022/06/25 00:45:45;;;;;;;1.20;1.10;;;;;;;22.68;56.03;93111.00;4753843;30;20042;-91
2022/06/25 00:48:10;;;;;;;2.95;1.30;;;;;;;22.68;56.04;93108.25;4753445;29;20047;-93
2022/06/25 00:50:36;;;;;;;1.30;1.20;;;;;;;22.68;56.16;93117.25;4739007;30;20055;-94
2022/06/25 00:53:01;;;;;;;1.10;1.00;;;;;;;22.66;56.23;93117.06;4754393;30;20093;-93
2022/06/25 00:55:28;;;;;;;1.27;1.17;;;;;;;22.67;56.12;93118.53;4754314;30;20039;-94
2022/06/25 00:57:53;;;;;;;1.50;1.10;;;;;;;22.67;56.09;93129.53;4754384;30;20506;-94
2022/06/25 01:00:19;;;;;;;1.45;1.25;;;;;;;22.66;56.03;93127.34;4737782;29;20027;-91
2022/06/25 01:02:44;;;;;;;0.95;0.85;;;;;;;22.67;55.97;93126.78;4753866;30;20026;-90
2022/06/25 01:05:11;;;;;;;1.60;1.50;;;;;;;22.66;56.18;93130.81;4753743;30;20044;-93
2022/06/25 01:07:37;;;;;;;2.38;1.25;;;;;;;22.66;56.14;93130.09;4769000;30;20498;-94
2022/06/25 01:10:03;;;;;;;1.15;1.05;;;;;;;22.65;56.16;93125.84;4768520;30;20035;-91
2022/06/25 01:12:28;;;;;;;1.25;1.00;;;;;;;22.66;56.01;93133.59;4767474;30;20391;-94
2022/06/25 01:15:04;;;;;;;1.10;1.00;;;;;;;22.65;55.94;93120.34;4768365;30;20056;-92
2022/06/25 01:17:29;;;;;;;1.05;0.95;;;;;;;22.64;55.81;93125.13;4753370;30;20289;-90
2022/06/25 01:19:55;;;;;;;1.38;1.17;;;;;;;22.65;56.12;93129.34;4753620;30;20031;-93
2022/06/25 01:22:20;;;;;;;1.13;1.02;;;;;;;22.64;55.93;93127.88;4754095;30;20486;-90
2022/06/25 01:24:46;;;;;;;1.30;1.20;;;;;;;22.63;56.09;93123.66;4738582;30;20028;-94
2022/06/25 01:27:13;;;;;;;1.52;1.05;;;;;;;22.64;55.94;93116.84;4753819;30;20034;-92
2022/06/25 01:29:38;;;;;;;1.23;1.13;;;;;;;22.64;56.12;93125.13;4753666;30;20133;-94
2022/06/25 01:32:04;;;;;;;1.05;0.98;;;;;;;22.63;55.97;93133.94;4738261;30;20514;-92
2022/06/25 01:34:29;;;;;;;1.00;0.90;;;;;;;22.63;56.13;93131.19;4753471;30;20035;-90
2022/06/25 01:36:55;;;;;;;0.93;0.90;;;;;;;22.64;55.60;93132.66;4758540;29;20440;-93
2022/06/25 01:39:20;;;;;;;1.05;0.95;;;;;;;22.61;55.87;93128.97;4771669;29;20030;-90
2022/06/25 01:41:45;;;;;;;1.08;0.95;;;;;;;22.62;55.88;93133.19;4771002;29;20038;-93
2022/06/25 01:44:11;;;;;;;0.90;0.90;;;;;;;22.62;56.04;93133.19;4771223;29;20360;-94
2022/06/25 01:46:37;;;;;;;1.10;1.00;;;;;;;22.62;55.94;93132.47;4770760;29;20784;-92
2022/06/25 01:49:02;;;;;;;1.23;1.02;;;;;;;22.61;55.92;93134.47;4770652;29;20538;-90
2022/06/25 01:51:28;;;;;;;1.20;1.10;;;;;;;22.61;55.78;93142.00;4771279;29;20498;-94
2022/06/25 01:53:53;;;;;;;1.17;1.08;;;;;;;22.60;55.77;93137.78;4771428;29;20039;-93
2022/06/25 01:56:18;;;;;;;1.20;1.10;;;;;;;22.62;56.06;93137.97;4756123;29;20062;-90
2022/06/25 01:58:44;;;;;;;1.45;1.05;;;;;;;22.61;55.70;93134.47;4770933;29;20049;-93
2022/06/25 02:01:09;;;;;;;1.02;0.85;;;;;;;22.61;55.94;93139.25;4764447;30;20046;-90
2022/06/25 02:03:35;;;;;;;1.50;1.05;;;;;;;22.61;55.84;93145.50;4758128;30;20049;-91
2022/06/25 02:06:00;;;;;;;1.30;1.02;;;;;;;22.61;55.75;93147.50;4768113;30;20035;-93
2022/06/25 02:08:31;;;;;;;1.00;0.90;;;;;;;22.60;55.81;93138.50;4753260;30;20323;-93
2022/06/25 02:10:57;;;;;;;1.15;1.05;;;;;;;22.59;55.67;93128.78;4768357;29;20598;-91
2022/06/25 02:13:23;;;;;;;0.73;0.73;;;;;;;22.58;55.73;93130.78;4765378;30;20031;-94
2022/06/25 02:15:48;;;;;;;0.80;0.77;;;;;;;22.57;55.52;93129.31;4756174;30;20028;-93
2022/06/25 02:18:14;;;;;;;1.30;0.98;;;;;;;22.58;55.85;93133.53;4742104;30;20088;-92
2022/06/25 02:20:39;;;;;;;1.10;1.00;;;;;;;22.58;55.72;93124.53;4756583;30;20046;-90
2022/06/25 02:23:05;;;;;;;1.17;0.80;;;;;;;22.58;55.59;93130.78;4756340;30;20031;-90
2022/06/25 02:25:31;;;;;;;1.25;1.05;;;;;;;22.58;55.47;93130.06;4756149;30;20084;-94
2022/06/25 02:27:57;;;;;;;1.20;1.02;;;;;;;22.58;55.68;93128.03;4756479;30;20024;-91
2022/06/25 02:30:23;;;;;;;0.80;0.80;;;;;;;22.58;55.80;93124.53;4756236;29;20499;-89
2022/06/25 02:32:48;;;;;;;0.85;0.85;;;;;;;22.59;55.84;93134.28;4756555;30;20129;-91
2022/06/25 02:35:13;;;;;;;1.05;0.98;;;;;;;22.56;55.61;93125.09;4756380;30;20445;-90
2022/06/25 02:37:39;;;;;;;1.08;0.80;;;;;;;22.58;55.72;93127.28;4755803;30;20480;-93
2022/06/25 02:40:05;;;;;;;1.58;0.80;;;;;;;22.57;55.72;93129.31;4756479;30;20390;-94
2022/06/25 02:42:35;;;;;;;1.02;0.93;;;;;;;22.56;55.32;93129.84;4756918;30;20031;-92
2022/06/25 02:45:00;;;;;;;0.93;0.80;;;;;;;22.55;55.68;93129.13;4771028;29;20042;-91
2022/06/25 02:47:26;;;;;;;1.33;1.10;;;;;;;22.55;55.63;93123.63;4755983;30;20050;-93
2022/06/25 02:49:51;;;;;;;0.95;0.80;;;;;;;22.56;55.80;93124.34;4755871;30;20047;-94
2022/06/25 02:52:17;;;;;;;0.82;0.82;;;;;;;22.54;55.58;93124.16;4755932;30;20076;-93
2022/06/25 02:54:42;;;;;;;0.77;0.77;;;;;;;22.56;55.78;93118.84;4756266;30;20031;-94
2022/06/25 02:59:55;;;;;;;1.10;1.00;;;;;;;22.53;55.36;93120.66;4760406;30;20041;-93
2022/06/25 03:02:20;;;;;;;1.20;1.10;;;;;;;22.53;55.71;93119.91;4769765;30;20039;-93
2022/06/25 03:04:45;;;;;;;1.02;0.93;;;;;;;22.53;55.37;93112.41;4753083;30;20028;-93
2022/06/25 03:07:11;;;;;;;0.90;0.90;;;;;;;22.53;55.49;93128.19;4767006;30;20027;-94
2022/06/25 03:09:36;;;;;;;1.05;0.95;;;;;;;22.53;55.45;93128.94;4768027;30;20035;-93
2022/06/25 03:12:02;;;;;;;1.10;1.00;;;;;;;22.53;55.50;93130.94;4767151;30;20075;-92
2022/06/25 03:14:27;;;;;;;1.35;0.90;;;;;;;22.53;55.67;93128.19;4784820;29;20506;-93
2022/06/25 03:16:52;;;;;;;1.00;0.90;;;;;;;22.53;55.55;93133.69;4770461;30;20028;-90
2022/06/25 03:19:18;;;;;;;0.88;0.88;;;;;;;22.54;55.19;93130.41;4755499;30;20035;-94
2022/06/25 03:21:45;;;;;;;1.25;1.15;;;;;;;22.53;55.13;93128.19;4755716;30;20479;-92
2022/06/25 03:24:11;;;;;;;0.82;0.70;;;;;;;22.52;55.26;93129.47;4769711;30;20034;-94
2022/06/25 03:26:37;;;;;;;1.10;1.00;;;;;;;22.50;55.40;93132.78;4755079;30;20083;-90
2022/06/25 03:29:03;;;;;;;0.85;0.65;;;;;;;22.51;55.44;93128.75;4755114;30;20434;-89
2022/06/25 03:31:28;;;;;;;0.70;0.70;;;;;;;22.51;55.43;93134.25;4755567;30;20507;-93
2022/06/25 03:33:54;;;;;;;1.25;0.80;;;;;;;22.50;55.56;93135.56;4755436;30;20039;-91
2022/06/25 03:36:19;;;;;;;1.30;1.00;;;;;;;22.51;55.39;93139.78;4755420;30;20058;-94
2022/06/25 03:38:45;;;;;;;1.10;0.77;;;;;;;22.52;55.39;93143.97;4754875;30;20387;-94
2022/06/25 03:43:54;;;;;;;1.00;0.90;;;;;;;22.52;55.22;93154.25;4759814;30;20076;-93
2022/06/25 03:46:19;;;;;;;0.98;0.80;;;;;;;22.50;55.33;93149.31;4755208;30;20031;-93
2022/06/25 03:48:45;;;;;;;0.80;0.68;;;;;;;22.51;55.46;93155.56;4754570;30;20191;-92
2022/06/25 03:51:10;;;;;;;1.00;0.70;;;;;;;22.51;55.14;93159.06;4755198;30;20457;-91
2022/06/25 03:53:36;;;;;;;1.17;0.88;;;;;;;22.51;55.15;93164.56;4755072;30;20475;-92
2022/06/25 03:56:01;;;;;;;0.52;0.50;;;;;;;22.50;55.14;93163.09;4755232;30;20031;-94
2022/06/25 03:58:27;;;;;;;1.10;0.88;;;;;;;22.50;55.29;93165.13;4754891;30;20027;-93
2022/06/25 04:00:52;;;;;;;0.98;0.70;;;;;;;22.50;55.29;93157.59;4754336;30;20047;-94
2022/06/25 04:03:18;;;;;;;1.05;0.90;;;;;;;22.50;55.29;93167.88;4751456;30;20032;-95
2022/06/25 04:05:43;;;;;;;0.60;0.60;;;;;;;22.48;55.49;93168.41;4767074;30;20039;-93
2022/06/25 04:08:09;;;;;;;0.80;0.80;;;;;;;22.50;54.88;93167.88;4780912;30;20058;-90
2022/06/25 04:10:34;;;;;;;11.55;2.05;;;;;;;22.50;55.10;93176.13;4781661;30;20036;-92
2022/06/25 04:13:00;;;;;;;0.77;0.75;;;;;;;22.49;55.17;93183.66;4781532;30;20063;-93
2022/06/25 04:15:25;;;;;;;0.93;0.90;;;;;;;22.48;55.37;93179.44;4783763;29;20040;-91
2022/06/25 04:17:50;;;;;;;1.10;1.00;;;;;;;22.48;55.07;93175.94;4754234;30;20042;-92
2022/06/25 04:20:16;;;;;;;1.10;1.00;;;;;;;22.49;55.53;93175.41;4754860;30;20039;-92
2022/06/25 04:22:42;;;;;;;0.80;0.63;;;;;;;22.48;55.29;93173.91;4754721;30;20035;-94
2022/06/25 04:25:07;;;;;;;0.90;0.73;;;;;;;22.48;55.22;93173.19;4754704;30;20039;-94
2022/06/25 04:30:17;;;;;;;1.35;1.02;;;;;;;22.48;55.40;93175.94;4758847;29;20050;-92
2022/06/25 04:32:42;;;;;;;0.82;0.73;;;;;;;22.48;55.21;93179.44;4769194;30;20035;-90
2022/06/25 04:35:08;;;;;;;0.70;0.70;;;;;;;22.48;55.24;93181.44;4753680;30;20388;-95
2022/06/25 04:37:33;;;;;;;0.82;0.77;;;;;;;22.46;55.15;93181.97;4754021;29;20200;-94
2022/06/25 04:39:58;;;;;;;1.17;0.98;;;;;;;22.47;55.24;93183.47;4754252;30;20034;-94
2022/06/25 04:42:24;;;;;;;0.70;0.70;;;;;;;22.46;55.38;93179.22;4754745;30;20039;-91
2022/06/25 04:44:49;;;;;;;0.77;0.70;;;;;;;22.46;55.30;93187.50;4769049;30;20411;-91
2022/06/25 04:47:15;;;;;;;1.00;0.90;;;;;;;22.48;55.23;93186.94;4768516;30;20054;-94
2022/06/25 04:49:40;;;;;;;1.10;1.00;;;;;;;22.47;55.33;93185.47;4755929;29;20058;-91
2022/06/25 04:52:06;;;;;;;0.68;0.68;;;;;;;22.47;55.27;93182.72;4753004;30;20039;-93
2022/06/25 04:54:31;;;;;;;1.15;0.90;;;;;;;22.47;55.40;93186.22;4737187;30;20046;-89
2022/06/25 04:56:57;;;;;;;0.80;0.80;;;;;;;22.47;55.25;93174.47;4753080;30;20048;-93
2022/06/25 04:59:23;;;;;;;0.70;0.70;;;;;;;22.46;55.24;93181.25;4752309;30;20491;-94
2022/06/25 05:01:48;;;;;;;1.00;0.90;;;;;;;22.46;55.19;93178.50;4745308;30;20540;-94
2022/06/25 05:04:13;;;;;;;0.95;0.75;;;;;;;22.46;55.13;93178.50;4729776;30;20035;-93
2022/06/25 05:06:39;;;;;;;0.80;0.75;;;;;;;22.46;55.22;93179.22;4749404;30;20050;-93
2022/06/25 05:09:04;;;;;;;0.60;0.60;;;;;;;22.47;55.30;93182.72;4763617;30;20122;-92
2022/06/25 05:11:30;;;;;;;0.75;0.75;;;;;;;22.46;55.19;93178.50;4764709;30;20036;-93
2022/06/25 05:13:55;;;;;;;0.60;0.60;;;;;;;22.45;55.25;93171.50;4763958;30;20039;-91
2022/06/25 05:16:20;;;;;;;0.60;0.60;;;;;;;22.45;54.96;93188.03;4735144;30;20031;-95
2022/06/25 05:18:47;;;;;;;0.80;0.73;;;;;;;22.44;55.08;93172.78;4734209;30;20050;-89
2022/06/25 05:21:13;;;;;;;0.60;0.60;;;;;;;22.45;55.25;93188.03;4749738;30;20109;-91
2022/06/25 05:23:39;;;;;;;0.75;0.70;;;;;;;22.45;55.01;93190.78;4748319;30;20043;-91
2022/06/25 05:26:04;;;;;;;0.88;0.80;;;;;;;22.45;55.49;93190.78;4753244;30;20035;-89
2022/06/25 05:28:30;;;;;;;1.02;0.82;;;;;;;22.44;55.07;93195.56;4753477;30;20035;-92
2022/06/25 05:30:55;;;;;;;1.10;0.80;;;;;;;22.45;55.25;93201.81;4752909;30;20043;-93
2022/06/25 05:33:21;;;;;;;0.70;0.70;;;;;;;22.45;55.15;93196.28;4753710;30;20548;-91
2022/06/25 05:35:46;;;;;;;0.90;0.70;;;;;;;22.43;55.02;93202.34;4767938;30;20023;-94
2022/06/25 05:38:12;;;;;;;0.98;0.80;;;;;;;22.44;55.21;93203.81;4752989;30;20104;-93
2022/06/25 05:40:37;;;;;;;0.73;0.70;;;;;;;22.44;54.70;93195.56;4753367;30;20043;-92
2022/06/25 05:43:03;;;;;;;0.85;0.85;;;;;;;22.44;55.24;93197.56;4738952;30;20092;-94
2022/06/25 05:45:29;;;;;;;0.60;0.60;;;;;;;22.43;55.39;93205.09;4753511;29;20031;-93
2022/06/25 05:47:55;;;;;;;0.50;0.50;;;;;;;22.42;55.06;93209.13;4753452;30;20094;-89
2022/06/25 05:50:20;;;;;;;0.60;0.60;;;;;;;22.44;55.20;93205.84;4757031;29;20088;-91
2022/06/25 05:52:46;;;;;;;0.60;0.60;;;;;;;22.44;55.05;93217.59;4771314;29;20042;-94
2022/06/25 05:55:12;;;;;;;0.95;0.85;;;;;;;22.43;55.13;93224.38;4770727;29;20491;-90
2022/06/25 05:57:38;;;;;;;0.85;0.80;;;;;;;22.43;55.04;93224.38;4771358;29;20042;-90
2022/06/25 06:00:04;;;;;;;0.90;0.80;;;;;;;22.42;54.79;93225.66;4755898;29;20023;-93
2022/06/25 06:02:29;;;;;;;0.73;0.73;;;;;;;22.45;55.22;93221.09;4770293;29;20075;-93
2022/06/25 06:04:55;;;;;;;0.85;0.85;;;;;;;22.42;55.03;93230.44;4767826;30;20395;-92
2022/06/25 06:07:20;;;;;;;0.80;0.80;;;;;;;22.42;54.77;93224.91;4768149;30;20038;-93
2022/06/25 06:09:46;;;;;;;1.02;0.93;;;;;;;22.43;55.12;93234.66;4768450;30;20490;-92
2022/06/25 06:12:11;;;;;;;0.70;0.70;;;;;;;22.44;55.06;93230.63;4768125;30;20036;-90
2022/06/25 06:14:36;;;;;;;1.40;0.82;;;;;;;22.43;55.30;93231.91;4764983;30;20031;-92
2022/06/25 06:17:02;;;;;;;1.20;0.93;;;;;;;22.44;55.12;93241.66;4753528;30;20047;-93
2022/06/25 06:19:27;;;;;;;0.80;0.80;;;;;;;22.43;55.20;93232.66;4752564;30;20038;-92
2022/06/25 06:21:53;;;;;;;0.98;0.85;;;;;;;22.43;55.31;93232.66;4753235;30;20039;-93
2022/06/25 06:24:18;;;;;;;1.00;0.82;;;;;;;22.43;55.02;93240.16;4753128;30;20104;-91
2022/06/25 06:26:44;;;;;;;1.15;0.90;;;;;;;22.43;55.24;93240.91;4752874;30;20039;-93
2022/06/25 06:29:09;;;;;;;0.77;0.77;;;;;;;22.42;55.15;93236.69;4738603;30;20082;-91
2022/06/25 06:31:35;;;;;;;1.08;0.82;;;;;;;22.41;55.26;93239.97;4752496;30;20580;-90
2022/06/25 06:34:00;;;;;;;1.10;1.00;;;;;;;22.44;54.86;93241.66;4767750;30;20035;-90
2022/06/25 06:36:26;;;;;;;1.10;1.00;;;;;;;22.43;55.13;93251.19;4738583;30;20046;-92
2022/06/25 06:38:51;;;;;;;0.80;0.80;;;;;;;22.42;54.93;93250.44;4752774;30;20035;-91
2022/06/25 06:41:19;;;;;;;0.98;0.98;;;;;;;22.44;55.08;93249.91;4752807;30;20047;-91
2022/06/25 06:43:45;;;;;;;1.08;0.98;;;;;;;22.42;55.12;93246.97;4754044;30;20043;-92
2022/06/25 06:46:13;;;;;;;0.90;0.82;;;;;;;22.42;54.90;93247.69;4767873;30;20031;-93
2022/06/25 06:48:41;;;;;;;0.77;0.70;;;;;;;22.41;54.95;93259.25;4750517;30;20543;-92
2022/06/25 06:51:07;;;;;;;1.10;1.00;;;;;;;22.43;54.99;93259.44;4757156;30;20046;-90
2022/06/25 06:53:33;;;;;;;1.15;0.80;;;;;;;22.42;55.07;93261.47;4768351;30;20023;-92
2022/06/25 06:55:59;;;;;;;1.38;1.17;;;;;;;22.44;55.23;93258.19;4753012;30;20484;-90
2022/06/25 06:58:25;;;;;;;1.00;0.70;;;;;;;22.44;55.02;93258.19;4753709;30;20035;-89
2022/06/25 07:00:50;;;;;;;0.90;0.90;;;;;;;22.43;54.60;93254.69;4772625;30;20107;-91
2022/06/25 07:03:16;;;;;;;2.88;1.00;;;;;;;22.45;54.97;93260.38;4757532;30;20545;-93
2022/06/25 07:05:41;;;;;;;1.25;0.70;;;;;;;22.44;55.01;93269.94;4782783;30;20075;-90
2022/06/25 07:08:06;;;;;;;1.33;0.93;;;;;;;22.44;55.26;93267.19;4782866;30;20032;-93
2022/06/25 07:10:32;;;;;;;2.08;0.70;;;;;;;22.46;55.05;93263.88;4768721;30;20038;-91
2022/06/25 07:12:57;;;;;;;2.80;1.10;;;;;;;22.44;54.91;93274.69;4791634;30;20039;-95
2022/06/25 07:15:23;;;;;;;1.73;1.05;;;;;;;22.43;54.82;93270.47;4789029;30;20032;-90
2022/06/25 07:17:48;;;;;;;0.85;0.85;;;;;;;22.45;54.93;93274.16;4785932;30;20040;-91
2022/06/25 07:20:14;;;;;;;1.23;1.00;;;;;;;22.43;54.69;93270.47;4791479;30;20042;-92
2022/06/25 07:22:40;;;;;;;2.15;0.90;;;;;;;22.43;54.92;93273.22;4801375;29;20408;-93
2022/06/25 07:25:06;;;;;;;5.30;1.10;;;;;;;22.44;54.99;93278.19;4782908;30;20392;-93
2022/06/25 07:27:32;;;;;;;6.00;1.33;;;;;;;22.44;54.85;93278.19;4766812;30;20493;-93
2022/06/25 07:29:57;;;;;;;1.23;1.00;;;;;;;22.44;54.60;93280.94;4738346;30;20040;-93
2022/06/25 07:32:22;;;;;;;1.73;1.55;;;;;;;22.45;54.53;93278.94;4737981;30;20047;-92
2022/06/25 07:34:48;;;;;;;3.15;1.60;;;;;;;22.45;54.84;93284.44;4753473;30;20031;-95
2022/06/25 07:37:13;;;;;;;258.45;41.80;;;;;;;22.42;55.02;93289.00;4753235;30;20533;-94
2022/06/25 07:39:39;;;;;;;89.95;15.45;;;;;;;22.42;54.90;93289.00;4738361;30;20032;-94
2022/06/25 07:42:04;;;;;;;52.83;9.27;;;;;;;22.44;54.82;93283.69;4766772;29;20082;-93
2022/06/25 07:44:30;;;;;;;40.38;6.47;;;;;;;22.45;54.91;93287.19;4783198;30;20114;-91
2022/06/25 07:46:55;;;;;;;40.28;4.10;;;;;;;22.44;54.80;93282.97;4797564;29;20032;-95
2022/06/25 07:49:21;;;;;;;16.25;3.22;;;;;;;22.47;54.96;93287.41;4740100;30;20048;-95
2022/06/25 07:52:01;;;;;;;10.00;3.13;;;;;;;22.47;54.75;93292.91;4765790;30;20027;-91
2022/06/25 07:54:31;;;;;;;8.05;2.40;;;;;;;22.44;55.13;93285.72;4761335;30;20035;-93
2022/06/25 07:56:57;;;;;;;7.65;2.47;;;;;;;22.46;54.79;93286.66;4758440;30;20069;-92
2022/06/25 07:59:22;;;;;;;9.15;4.85;;;;;;;22.46;54.80;93283.91;4755391;30;20062;-91
2022/06/25 08:01:51;;;;;;;25.10;13.70;;;;;;;22.47;54.64;93290.88;4753931;30;20046;-93
2022/06/25 08:04:16;;;;;;;22.45;10.02;;;;;;;22.48;54.85;93291.63;4750545;30;20515;-95
2022/06/25 08:06:43;;;;;;;45.90;26.63;;;;;;;22.48;54.95;93288.88;4739691;30;20058;-93
2022/06/25 08:09:08;;;;;;;61.60;36.33;;;;;;;22.47;54.67;93298.41;4738147;30;20035;-92
2022/06/25 08:11:34;;;;;;;59.65;33.40;;;;;;;22.48;55.07;93302.66;4752087;30;20046;-93
2022/06/25 08:13:59;;;;;;;46.20;28.17;;;;;;;22.47;54.85;93309.44;4752681;30;20476;-93
2022/06/25 08:16:25;;;;;;;57.67;31.90;;;;;;;22.50;54.87;93311.13;4748976;30;20070;-95
2022/06/25 08:18:51;;;;;;;78.20;41.70;;;;;;;22.48;54.68;93311.66;4721327;30;20040;-94
2022/06/25 08:21:18;;;;;;;98.13;46.35;;;;;;;22.50;54.68;93311.84;4750097;30;20119;-94
2022/06/25 08:23:44;;;;;;;158.63;56.20;;;;;;;22.49;54.89;93304.88;4750062;30;20020;-94
2022/06/25 08:26:09;;;;;;;192.93;60.05;;;;;;;22.50;54.63;93311.13;4735521;30;20123;-93
2022/06/25 08:28:34;;;;;;;174.45;58.47;;;;;;;22.51;54.64;93310.56;4761445;30;20027;-92
2022/06/25 08:31:00;;;;;;;186.60;61.33;;;;;;;22.52;54.72;93305.78;4754261;30;20048;-91
2022/06/25 08:33:25;;;;;;;180.13;61.53;;;;;;;22.51;54.49;93298.81;4769537;30;20042;-92
2022/06/25 08:35:51;;;;;;;160.18;58.85;;;;;;;22.51;54.68;93309.84;4754609;30;20063;-91
2022/06/25 08:38:17;;;;;;;126.05;56.25;;;;;;;22.52;54.71;93308.53;4754483;30;20031;-92
2022/06/25 08:40:43;;;;;;;130.60;58.38;;;;;;;22.53;54.69;93310.00;4754587;30;20027;-92
2022/06/25 08:43:08;;;;;;;119.45;52.40;;;;;;;22.52;54.61;93314.78;4755048;30;20028;-93
2022/06/25 08:45:34;;;;;;;147.55;54.92;;;;;;;22.53;54.74;93321.03;4770071;30;20028;-92
2022/06/25 08:48:00;;;;;;;144.70;56.40;;;;;;;22.52;54.64;93306.50;4746922;30;20023;-92
2022/06/25 08:50:25;;;;;;;120.53;53.10;;;;;;;22.53;54.35;93304.50;4769419;30;20470;-92
2022/06/25 08:52:54;;;;;;;121.95;52.35;;;;;;;22.55;54.50;93313.69;4754142;30;20031;-91
2022/06/25 08:55:36;;;;;;;127.53;53.88;;;;;;;22.55;54.63;93316.47;4769676;30;20027;-93
2022/06/25 08:58:02;;;;;;;106.97;48.70;;;;;;;22.54;54.58;93312.22;4769559;30;20069;-93
2022/06/25 09:00:29;;;;;;;100.20;48.08;;;;;;;22.54;54.72;93320.50;4768774;29;20067;-92
2022/06/25 09:02:55;;;;;;;89.05;46.22;;;;;;;22.55;54.33;93321.97;4751567;30;20032;-93
2022/06/25 09:05:32;;;;;;;97.05;45.97;;;;;;;22.56;54.56;93328.22;4737092;30;20090;-94
2022/06/25 09:07:58;;;;;;;100.88;48.13;;;;;;;22.56;54.67;93320.69;4748872;30;20028;-95
2022/06/25 09:10:24;;;;;;;118.53;49.97;;;;;;;22.58;54.50;93325.66;4748763;30;20086;-94
2022/06/25 09:12:51;;;;;;;128.07;65.72;;;;;;;22.58;54.53;93329.16;4748352;30;20036;-93
2022/06/25 09:15:19;;;;;;;131.68;70.07;;;;;;;22.60;54.39;93327.88;4766735;30;20058;-94
2022/06/25 09:17:49;;;;;;;147.45;84.18;;;;;;;22.58;54.33;93329.16;4754520;30;20487;-93
2022/06/25 09:20:14;;;;;;;168.45;105.22;;;;;;;22.58;54.59;93337.41;4770289;30;20031;-93
2022/06/25 09:22:40;;;;;;;179.35;103.30;;;;;;;22.61;54.52;93324.59;4768644;30;20042;-94
2022/06/25 09:25:06;;;;;;;201.13;117.05;;;;;;;22.60;54.31;93336.88;4754820;30;20027;-93
2022/06/25 09:27:37;;;;;;;213.75;123.97;;;;;;;22.62;54.32;93330.84;4769017;30;20046;-94
2022/06/25 09:30:10;;;;;;;209.65;113.07;;;;;;;22.60;54.59;93333.38;4783969;30;20038;-93
2022/06/25 09:32:55;;;;;;;206.85;114.70;;;;;;;22.58;54.71;93334.66;4768907;29;20051;-94
2022/06/25 09:35:33;;;;;;;218.23;114.25;;;;;;;22.61;54.50;93335.59;4787189;29;20030;-94
2022/06/25 09:38:17;;;;;;;203.23;107.45;;;;;;;22.59;54.41;93343.66;5128635;24;20079;-95
2022/06/25 09:40:48;;;;;;;195.07;104.28;;;;;;;22.60;54.56;93334.13;4757352;30;20043;-96
2022/06/25 09:43:25;;;;;;;224.45;112.20;;;;;;;22.62;54.56;93333.59;4759201;30;20376;-93
2022/06/25 09:45:52;;;;;;;212.90;109.70;;;;;;;22.64;54.33;93326.25;4771425;30;20027;-93
2022/06/25 09:48:21;;;;;;;216.25;110.93;;;;;;;22.62;54.49;93333.59;4760419;30;20037;-93
2022/06/25 09:51:56;;;;;;;;;;;;;;;;;;;;;
2022/06/25 09:54:10;;;;;;;226.73;113.65;;;;;;;22.63;54.24;93330.28;4722511;30;20080;-94
2022/06/25 09:56:37;;;;;;;232.57;108.72;;;;;;;22.64;54.36;93334.53;4688770;30;20029;-94
2022/06/25 09:59:03;;;;;;;213.68;105.57;;;;;;;22.64;54.30;93328.28;4713412;30;20053;-95
2022/06/25 10:01:30;;;;;;;217.30;107.60;;;;;;;22.65;54.24;93336.00;4686182;30;20045;-96
2022/06/25 10:03:56;;;;;;;221.10;103.72;;;;;;;22.64;54.28;93334.53;4717147;30;20071;-94
2022/06/25 10:06:22;;;;;;;226.75;106.22;;;;;;;22.65;54.21;93329.75;4730526;30;20543;-95
2022/06/25 10:08:52;;;;;;;201.45;102.63;;;;;;;22.64;54.59;93334.53;4731016;30;20108;-94
2022/06/25 10:11:19;;;;;;;211.30;104.32;;;;;;;22.65;54.34;93332.50;4716271;30;20060;-94
2022/06/25 10:13:45;;;;;;;193.57;100.43;;;;;;;22.65;54.41;93327.00;4730062;30;20036;-92
2022/06/25 10:16:10;;;;;;;217.80;111.80;;;;;;;22.62;54.32;93323.31;4730313;30;20048;-94
2022/06/25 10:18:36;;;;;;;208.30;107.78;;;;;;;22.64;54.46;93315.25;4714660;30;20052;-94
2022/06/25 10:21:01;;;;;;;209.75;104.68;;;;;;;22.67;54.43;93321.69;4728768;30;20048;-94
2022/06/25 10:23:27;;;;;;;151.68;78.45;;;;;;;22.62;54.23;93322.56;4730021;30;20036;-94
2022/06/25 10:25:52;;;;;;;118.72;57.25;;;;;;;22.60;54.42;93325.88;4754177;30;20364;-94
2022/06/25 10:28:25;;;;;;;104.72;53.55;;;;;;;22.55;54.43;93319.22;4753277;30;20042;-93
2022/06/25 10:30:56;;;;;;;83.00;45.08;;;;;;;22.52;54.26;93325.81;4754234;30;20099;-94
2022/06/25 10:33:37;;;;;;;68.78;33.10;;;;;;;22.52;54.46;93322.31;4771214;30;20115;-94
2022/06/25 10:36:05;;;;;;;54.00;27.42;;;;;;;22.48;54.40;93319.91;4786607;30;20031;-94
2022/06/25 10:38:31;;;;;;;60.35;29.30;;;;;;;22.45;54.33;93321.00;4761750;30;20045;-91
2022/06/25 10:40:57;;;;;;;123.18;37.10;;;;;;;22.46;54.18;93316.22;4713148;30;20044;-95
2022/06/25 10:43:46;;;;;;;67.68;29.75;;;;;;;22.44;54.26;93313.25;4754899;30;20032;-96
2022/06/25 10:46:36;;;;;;;71.90;28.02;;;;;;;22.45;54.28;93315.47;4737902;30;20131;-95
2022/06/25 10:49:10;;;;;;;54.43;21.90;;;;;;;22.43;54.00;93315.28;4737673;30;20123;-96
2022/06/25 10:51:38;;;;;;;48.10;19.92;;;;;;;22.42;54.11;93315.81;4730480;30;20496;-95
2022/06/25 10:54:04;;;;;;;44.22;18.48;;;;;;;22.43;54.05;93315.28;4752298;30;20071;-94
2022/06/25 10:56:43;;;;;;;36.63;16.38;;;;;;;22.42;54.33;93316.56;4709221;30;20076;-92
2022/06/25 10:59:17;;;;;;;52.65;21.98;;;;;;;22.40;54.27;93304.59;4740535;30;20067;-94
2022/06/25 11:01:42;;;;;;;48.30;26.52;;;;;;;22.42;54.65;93310.31;4713458;30;20052;-95
2022/06/25 11:04:11;;;;;;;70.97;35.08;;;;;;;22.43;54.49;93311.78;4725227;30;20036;-93
2022/06/25 11:06:38;;;;;;;44.63;19.90;;;;;;;22.43;54.46;93307.00;4744325;30;20044;-96
2022/06/25 11:09:13;;;;;;;31.45;15.45;;;;;;;22.47;54.51;93309.44;4730157;30;20032;-94
2022/06/25 11:11:55;;;;;;;44.90;22.23;;;;;;;22.44;54.86;93319.50;4726344;30;20063;-95
2022/06/25 11:14:33;;;;;;;64.28;42.35;;;;;;;22.44;54.43;93305.75;4754738;30;20032;-95
2022/06/25 11:17:11;;;;;;;46.33;25.25;;;;;;;22.49;54.52;93307.63;4771460;24;20437;-95
2022/06/25 11:19:45;;;;;;;69.85;36.72;;;;;;;22.53;54.39;93318.28;4774705;30;20040;-95
2022/06/25 11:22:11;;;;;;;62.45;38.42;;;;;;;22.56;54.33;93306.91;4780355;30;20062;-96
2022/06/25 11:28:47;;;;;;;40.00;24.13;;;;;;;22.57;54.21;93313.91;4782922;30;20032;-95
2022/06/25 11:30:07;;;;;;;55.15;30.23;;;;;;;22.62;54.25;93306.03;4778468;29;20100;-96
2022/06/25 11:32:33;;;;;;;54.03;31.98;;;;;;;22.63;54.30;93308.25;4761619;30;20035;-96
2022/06/25 11:34:59;;;;;;;61.17;31.38;;;;;;;22.65;54.18;93304.97;4760398;30;20027;-96
2022/06/25 11:37:29;;;;;;;50.60;31.95;;;;;;;22.66;54.09;93307.19;4774949;24;20055;-96
2022/06/25 11:39:55;;;;;;;47.00;30.00;;;;;;;22.67;54.26;93305.16;4730438;30;20045;-95